Startpagina
METAR-TAF:

METAR-TAF

Vliegvelden :

Aeroporto di Torino

Turijn, Italië

breedte: 45-13N, lengte: 007-39E, hoogte: 301 m

Actueel weer

Dit bericht is 29 minuten geleden gemaakt, om 17:50 UTC
Wind 9 kt uit het westnoordwesten
Temperatuur 17°C
Vochtigheid 77%
Druk 1006 hPa
Zicht 10 km of meer
Verspreide wolken op 3500 ft, Cumulonimbus.
Gebroken wolken op 8000 ft
onweer, lichte regen

METAR: LIMF 031750Z 29009KT 9999 -TSRA SCT035CB BKN080 17/13 Q1006

Tijdstip: 20:19 (18:19 UTC)

Verwachting

Dit bericht is 1 uur en het 19 minuten geleden gemaakt, om 17:00 UTC
Verwachting geldig van 03 om 18 UTC tot 04 om 18 UTC
Wind 8 kt uit het zuidzuidoosten
Zicht 10 km of meer
Verspreide wolken op 4000 ft
Tijdelijke
van 03 om 18 UTC tot 03 om 20 UTC
onweer, regen
Tijdelijke
van 03 om 23 UTC tot 04 om 06 UTC
Zicht: 4000 m
onweer, regen

TAF: LIMF 031700Z 0318/0418 15008KT 9999 SCT040 TEMPO 0318/0320 TSRA TEMPO 0323/0406 4000 TSRA

Waarnemingen en weersverwachtingen van meer dan 4000 vliegvelden (METAR en TAF).

De beschikbare stations zijn de gele en rode punten op de kaart.

Ga met uw muis naar het station om de naam te zien.

Klik dan om waarnemingen en weersverwachtingen te zien.

kaart wijzigen: klik op de groene knoppen met een zwart kruis om in te zoomen, op de groene knop met een streepje om uit te zoomen of op de groene pijlen voor aangrenzende kaarten.


METAR-TAF: